Time;durP1;ratioP1;P1;durP2;ratioP2;P2;SDS_P1;SDS_P2;PMS_P1;PMS_P2;Temp;Humidity;BMP_temperature;BMP_pressure;BME280_temperature;BME280_humidity;BME280_pressure;Samples;Min_cycle;Max_cycle;Signal;HPM_P1;HPM_P2
2024/03/21 00:00:14;;;;;;;;;;;;;;;;;;5108288;28;19919;-61
2024/03/21 00:02:40;;;;;;;;;;;;;;;;;;5108293;28;19994;-60
2024/03/21 00:05:06;;;;;;;;;;;;;;;;;;5109932;28;20061;-61
2024/03/21 00:07:31;;;;;;;;;;;;;;;;;;5107850;28;19998;-61
2024/03/21 00:09:56;;;;;;;;;;;;;;;;;;5106240;28;20006;-61
2024/03/21 00:12:21;;;;;;;;;;;;;;;;;;5109390;28;19911;-60
2024/03/21 00:14:46;;;;;;;;;;;;;;;;;;5108204;28;19911;-60
2024/03/21 00:17:11;;;;;;;;;;;;;;;;;;5108889;28;19919;-60
2024/03/21 00:19:36;;;;;;;;;;;;;;;;;;5109636;28;20392;-60
2024/03/21 00:22:01;;;;;;;;;;;;;;;;;;5103399;28;20617;-59
2024/03/21 00:24:27;;;;;;;;;;;;;;;;;;5105638;28;19912;-60
2024/03/21 00:26:52;;;;;;;;;;;;;;;;;;5109888;28;19927;-60
2024/03/21 00:29:17;;;;;;;;;;;;;;;;;;5104643;28;20318;-60
2024/03/21 00:31:42;;;;;;;;;;;;;;;;;;5102527;28;19912;-60
2024/03/21 00:34:08;;;;;;;;;;;;;;;;;;5110100;28;19912;-60
2024/03/21 00:36:33;;;;;;;;;;;;;;;;;;5108742;28;20844;-60
2024/03/21 00:38:59;;;;;;;;;;;;;;;;;;5106345;28;19911;-60
2024/03/21 00:41:24;;;;;;;;;;;;;;;;;;5109047;28;19997;-59
2024/03/21 00:43:49;;;;;;;;;;;;;;;;;;5109464;28;19923;-59
2024/03/21 00:46:15;;;;;;;;;;;;;;;;;;5109932;28;19915;-60
2024/03/21 00:48:40;;;;;;;;;;;;;;;;;;5107352;28;19915;-60
2024/03/21 00:51:05;;;;;;;;;;;;;;;;;;5110526;28;19919;-60
2024/03/21 00:53:31;;;;;;;;;;;;;;;;;;5109279;28;19919;-59
2024/03/21 00:55:56;;;;;;;;;;;;;;;;;;5108278;28;20471;-59
2024/03/21 00:58:21;;;;;;;;;;;;;;;;;;5109020;28;20021;-60
2024/03/21 01:00:46;;;;;;;;;;;;;;;;;;5109866;28;19919;-60
2024/03/21 01:03:12;;;;;;;;;;;;;;;;;;5107439;28;19924;-59
2024/03/21 01:05:37;;;;;;;;;;;;;;;;;;5109660;28;19919;-60
2024/03/21 01:08:03;;;;;;;;;;;;;;;;;;5110411;28;19919;-59
2024/03/21 01:10:28;;;;;;;;;;;;;;;;;;5107574;28;20020;-60
2024/03/21 01:12:53;;;;;;;;;;;;;;;;;;5110403;28;19912;-60
2024/03/21 01:15:20;;;;;;;;;;;;;;;;;;5109348;28;19908;-60
2024/03/21 01:17:45;;;;;;;;;;;;;;;;;;5108322;28;19994;-59
2024/03/21 01:20:11;;;;;;;;;;;;;;;;;;5109412;28;19915;-59
2024/03/21 01:22:36;;;;;;;;;;;;;;;;;;5110080;28;20279;-61
2024/03/21 01:25:01;;;;;;;;;;;;;;;;;;5107212;28;20281;-61
2024/03/21 01:27:26;;;;;;;;;;;;;;;;;;5109802;28;20333;-61
2024/03/21 01:29:51;;;;;;;;;;;;;;;;;;5103124;28;20328;-60
2024/03/21 01:32:17;;;;;;;;;;;;;;;;;;5108787;28;19915;-60
2024/03/21 01:34:42;;;;;;;;;;;;;;;;;;5110353;28;19923;-60
2024/03/21 01:37:07;;;;;;;;;;;;;;;;;;5108203;28;20492;-61
2024/03/21 01:39:32;;;;;;;;;;;;;;;;;;5110976;28;19973;-61
2024/03/21 01:41:57;;;;;;;;;;;;;;;;;;5111808;28;20288;-61
2024/03/21 01:44:23;;;;;;;;;;;;;;;;;;5113941;28;19942;-61
2024/03/21 01:46:48;;;;;;;;;;;;;;;;;;5113159;28;20466;-60
2024/03/21 01:49:13;;;;;;;;;;;;;;;;;;5113963;28;19923;-61
2024/03/21 01:51:38;;;;;;;;;;;;;;;;;;5113195;28;19926;-61
2024/03/21 01:54:03;;;;;;;;;;;;;;;;;;5109690;28;19920;-61
2024/03/21 01:56:28;;;;;;;;;;;;;;;;;;5112546;28;19956;-61
2024/03/21 01:58:54;;;;;;;;;;;;;;;;;;5108471;28;19912;-61
2024/03/21 02:01:19;;;;;;;;;;;;;;;;;;5108535;28;20400;-61
2024/03/21 02:03:45;;;;;;;;;;;;;;;;;;5109270;28;20312;-61
2024/03/21 02:06:10;;;;;;;;;;;;;;;;;;5112524;28;20477;-60
2024/03/21 02:08:35;;;;;;;;;;;;;;;;;;5111847;28;20442;-60
2024/03/21 02:11:00;;;;;;;;;;;;;;;;;;5112807;28;20318;-60
2024/03/21 02:13:25;;;;;;;;;;;;;;;;;;5108712;28;20300;-60
2024/03/21 02:15:51;;;;;;;;;;;;;;;;;;5111607;27;19912;-60
2024/03/21 02:18:16;;;;;;;;;;;;;;;;;;5119464;27;19919;-60
2024/03/21 02:20:41;;;;;;;;;;;;;;;;;;5121032;27;19943;-60
2024/03/21 02:23:06;;;;;;;;;;;;;;;;;;5122939;27;19927;-60
2024/03/21 02:25:32;;;;;;;;;;;;;;;;;;5119413;27;19911;-60
2024/03/21 02:27:57;;;;;;;;;;;;;;;;;;5122051;27;19954;-60
2024/03/21 02:30:22;;;;;;;;;;;;;;;;;;5117609;27;19955;-60
2024/03/21 02:32:48;;;;;;;;;;;;;;;;;;5115216;27;19923;-60
2024/03/21 02:35:13;;;;;;;;;;;;;;;;;;5116009;27;19912;-61
2024/03/21 02:37:38;;;;;;;;;;;;;;;;;;5108757;28;19919;-60
2024/03/21 02:40:03;;;;;;;;;;;;;;;;;;5107338;28;19920;-60
2024/03/21 02:42:28;;;;;;;;;;;;;;;;;;5100579;28;19919;-60
2024/03/21 02:44:53;;;;;;;;;;;;;;;;;;5100557;28;20295;-60
2024/03/21 02:50:04;;;;;;;;;;;;;;;;;;5049672;22;19968;-73
2024/03/21 02:52:29;;;;;;;;;;;;;;;;;;5000859;28;20255;-73
2024/03/21 02:54:54;;;;;;;;;;;;;;;;;;5042465;28;19920;-73
2024/03/21 02:57:20;;;;;;;;;;;;;;;;;;5040111;28;19920;-73
2024/03/21 02:59:45;;;;;;;;;;;;;;;;;;5034728;28;19952;-72
2024/03/21 03:02:12;;;;;;;;;;;;;;;;;;5033705;28;19963;-72
2024/03/21 03:04:37;;;;;;;;;;;;;;;;;;5044347;28;19919;-72
2024/03/21 03:07:02;;;;;;;;;;;;;;;;;;5045672;28;19909;-72
2024/03/21 03:09:27;;;;;;;;;;;;;;;;;;5037973;28;20003;-72
2024/03/21 03:11:52;;;;;;;;;;;;;;;;;;5049647;28;19913;-72
2024/03/21 03:14:23;;;;;;;;;;;;;;;;;;5039347;28;19913;-73
2024/03/21 03:16:48;;;;;;;;;;;;;;;;;;5033859;28;19924;-72
2024/03/21 03:19:13;;;;;;;;;;;;;;;;;;5033698;28;19909;-72
2024/03/21 03:21:38;;;;;;;;;;;;;;;;;;5044956;28;19912;-72
2024/03/21 03:24:04;;;;;;;;;;;;;;;;;;5051594;28;19909;-73
2024/03/21 03:26:29;;;;;;;;;;;;;;;;;;5048805;28;19909;-72
2024/03/21 03:28:54;;;;;;;;;;;;;;;;;;5036121;28;19995;-72
2024/03/21 03:31:19;;;;;;;;;;;;;;;;;;5043351;28;19909;-71
2024/03/21 03:36:28;;;;;;;;;;;;;;;;;;5037184;28;19916;-72
2024/03/21 03:38:53;;;;;;;;;;;;;;;;;;5047222;28;19908;-72
2024/03/21 03:41:18;;;;;;;;;;;;;;;;;;5051403;28;20364;-70
2024/03/21 03:43:43;;;;;;;;;;;;;;;;;;5051654;28;20356;-70
2024/03/21 03:46:08;;;;;;;;;;;;;;;;;;5049074;28;20253;-71
2024/03/21 03:48:34;;;;;;;;;;;;;;;;;;5039557;28;20314;-72
2024/03/21 03:50:59;;;;;;;;;;;;;;;;;;5011636;28;19939;-72
2024/03/21 03:53:24;;;;;;;;;;;;;;;;;;5013084;28;20328;-72
2024/03/21 03:55:49;;;;;;;;;;;;;;;;;;5026214;28;19916;-72
2024/03/21 03:58:14;;;;;;;;;;;;;;;;;;5031150;28;19963;-71
2024/03/21 04:00:39;;;;;;;;;;;;;;;;;;5031741;28;19920;-71
2024/03/21 04:03:04;;;;;;;;;;;;;;;;;;5031035;28;19933;-71
2024/03/21 04:05:29;;;;;;;;;;;;;;;;;;5031184;28;20009;-71
2024/03/21 04:07:55;;;;;;;;;;;;;;;;;;5028867;28;19956;-71
2024/03/21 04:10:20;;;;;;;;;;;;;;;;;;5012613;28;20067;-71
2024/03/21 04:12:45;;;;;;;;;;;;;;;;;;5020502;28;19913;-72
2024/03/21 04:15:10;;;;;;;;;;;;;;;;;;5031119;28;19913;-73
2024/03/21 04:17:35;;;;;;;;;;;;;;;;;;5031104;28;19915;-72
2024/03/21 04:20:01;;;;;;;;;;;;;;;;;;5028519;28;20036;-72
2024/03/21 04:22:26;;;;;;;;;;;;;;;;;;5021665;28;19952;-73
2024/03/21 04:24:51;;;;;;;;;;;;;;;;;;5016183;28;19999;-73
2024/03/21 04:27:17;;;;;;;;;;;;;;;;;;5012626;28;19916;-73
2024/03/21 04:29:43;;;;;;;;;;;;;;;;;;5024640;28;19909;-73
2024/03/21 04:32:08;;;;;;;;;;;;;;;;;;5030845;28;20257;-71
2024/03/21 04:34:33;;;;;;;;;;;;;;;;;;5020790;28;19910;-72
2024/03/21 04:36:58;;;;;;;;;;;;;;;;;;5012332;28;19953;-73
2024/03/21 04:39:23;;;;;;;;;;;;;;;;;;5012209;28;19910;-72
2024/03/21 04:41:48;;;;;;;;;;;;;;;;;;5011973;28;19971;-72
2024/03/21 04:44:13;;;;;;;;;;;;;;;;;;5017256;28;19920;-73
2024/03/21 04:46:38;;;;;;;;;;;;;;;;;;5024185;28;19949;-73
2024/03/21 04:49:06;;;;;;;;;;;;;;;;;;5011144;28;20313;-73
2024/03/21 04:51:31;;;;;;;;;;;;;;;;;;5012061;28;19914;-73
2024/03/21 04:53:56;;;;;;;;;;;;;;;;;;5012087;28;19909;-74
2024/03/21 04:56:21;;;;;;;;;;;;;;;;;;5016001;28;20011;-72
2024/03/21 04:58:47;;;;;;;;;;;;;;;;;;5012309;28;19930;-72
2024/03/21 05:01:13;;;;;;;;;;;;;;;;;;4997289;28;19909;-73
2024/03/21 05:03:38;;;;;;;;;;;;;;;;;;5012330;28;19925;-72
2024/03/21 05:06:03;;;;;;;;;;;;;;;;;;5012196;28;19914;-72
2024/03/21 05:08:28;;;;;;;;;;;;;;;;;;5014277;28;19910;-72
2024/03/21 05:10:53;;;;;;;;;;;;;;;;;;5018136;28;20321;-72
2024/03/21 05:13:18;;;;;;;;;;;;;;;;;;5024066;28;19921;-73
2024/03/21 05:15:43;;;;;;;;;;;;;;;;;;5023363;28;19964;-72
2024/03/21 05:18:09;;;;;;;;;;;;;;;;;;5015823;28;19914;-72
2024/03/21 05:20:34;;;;;;;;;;;;;;;;;;5024117;28;19914;-71
2024/03/21 05:22:59;;;;;;;;;;;;;;;;;;5023746;28;19921;-73
2024/03/21 05:25:24;;;;;;;;;;;;;;;;;;5025953;28;20345;-72
2024/03/21 05:27:49;;;;;;;;;;;;;;;;;;5027337;28;20295;-73
2024/03/21 05:30:14;;;;;;;;;;;;;;;;;;5024373;28;20322;-72
2024/03/21 05:32:39;;;;;;;;;;;;;;;;;;5023866;28;20284;-72
2024/03/21 05:35:04;;;;;;;;;;;;;;;;;;5022818;28;19921;-71
2024/03/21 05:37:30;;;;;;;;;;;;;;;;;;5025886;28;19910;-71
2024/03/21 05:39:55;;;;;;;;;;;;;;;;;;5023498;28;20449;-71
2024/03/21 05:42:20;;;;;;;;;;;;;;;;;;5022552;28;19913;-72
2024/03/21 05:44:45;;;;;;;;;;;;;;;;;;5026226;28;19910;-72
2024/03/21 05:47:10;;;;;;;;;;;;;;;;;;5024722;28;20004;-73
2024/03/21 05:49:35;;;;;;;;;;;;;;;;;;5022656;28;20369;-72
2024/03/21 05:52:00;;;;;;;;;;;;;;;;;;5024472;28;20361;-73
2024/03/21 05:54:25;;;;;;;;;;;;;;;;;;5024619;28;20383;-73
2024/03/21 05:56:51;;;;;;;;;;;;;;;;;;5027056;28;20004;-73
2024/03/21 05:59:16;;;;;;;;;;;;;;;;;;5023942;28;19976;-73
2024/03/21 06:01:41;;;;;;;;;;;;;;;;;;5023950;28;19914;-73
2024/03/21 06:04:08;;;;;;;;;;;;;;;;;;5022927;28;19920;-73
2024/03/21 06:06:33;;;;;;;;;;;;;;;;;;5020479;28;19917;-70
2024/03/21 06:08:59;;;;;;;;;;;;;;;;;;5024668;28;19921;-72
2024/03/21 06:11:24;;;;;;;;;;;;;;;;;;5028106;28;19960;-72
2024/03/21 06:13:50;;;;;;;;;;;;;;;;;;5022061;28;19964;-72
2024/03/21 06:16:15;;;;;;;;;;;;;;;;;;5016173;28;19996;-72
2024/03/21 06:18:40;;;;;;;;;;;;;;;;;;5015026;28;20002;-72
2024/03/21 06:21:05;;;;;;;;;;;;;;;;;;5015686;28;19928;-72
2024/03/21 06:23:30;;;;;;;;;;;;;;;;;;5026597;28;20055;-71
2024/03/21 06:25:57;;;;;;;;;;;;;;;;;;5027959;28;19913;-72
2024/03/21 06:28:22;;;;;;;;;;;;;;;;;;5028174;28;20315;-72
2024/03/21 06:30:47;;;;;;;;;;;;;;;;;;5032816;28;20580;-72
2024/03/21 06:33:12;;;;;;;;;;;;;;;;;;5015261;28;19909;-72
2024/03/21 06:35:39;;;;;;;;;;;;;;;;;;5032030;28;19953;-72
2024/03/21 06:38:04;;;;;;;;;;;;;;;;;;5032569;28;19909;-72
2024/03/21 06:40:30;;;;;;;;;;;;;;;;;;5032762;28;20397;-71
2024/03/21 06:42:55;;;;;;;;;;;;;;;;;;5028344;28;20445;-71
2024/03/21 06:45:21;;;;;;;;;;;;;;;;;;5017459;28;20350;-72
2024/03/21 06:47:47;;;;;;;;;;;;;;;;;;5016234;28;19918;-72
2024/03/21 06:50:12;;;;;;;;;;;;;;;;;;5032455;28;19928;-72
2024/03/21 06:52:37;;;;;;;;;;;;;;;;;;5033176;28;19944;-72
2024/03/21 06:55:02;;;;;;;;;;;;;;;;;;5032898;28;19913;-73
2024/03/21 06:57:27;;;;;;;;;;;;;;;;;;5032758;28;19909;-72
2024/03/21 06:59:53;;;;;;;;;;;;;;;;;;5025213;28;19913;-72
2024/03/21 07:02:18;;;;;;;;;;;;;;;;;;5023284;28;19923;-73
2024/03/21 07:04:43;;;;;;;;;;;;;;;;;;5032721;28;19909;-73
2024/03/21 07:07:08;;;;;;;;;;;;;;;;;;4999493;28;19949;-71
2024/03/21 07:09:33;;;;;;;;;;;;;;;;;;5017852;28;20583;-72
2024/03/21 07:11:59;;;;;;;;;;;;;;;;;;5012310;28;19963;-72
2024/03/21 07:14:24;;;;;;;;;;;;;;;;;;5029337;28;19924;-72
2024/03/21 07:16:49;;;;;;;;;;;;;;;;;;5032357;28;19917;-73
2024/03/21 07:19:14;;;;;;;;;;;;;;;;;;5017478;28;20285;-72
2024/03/21 07:21:39;;;;;;;;;;;;;;;;;;5012117;28;19913;-73
2024/03/21 07:24:04;;;;;;;;;;;;;;;;;;5013587;28;19948;-73
2024/03/21 07:26:30;;;;;;;;;;;;;;;;;;5017823;28;20369;-73
2024/03/21 07:28:55;;;;;;;;;;;;;;;;;;5029362;28;19917;-72
2024/03/21 07:31:20;;;;;;;;;;;;;;;;;;5029981;28;20293;-72
2024/03/21 07:33:51;;;;;;;;;;;;;;;;;;5030149;28;20344;-73
2024/03/21 07:36:16;;;;;;;;;;;;;;;;;;5030400;28;19909;-73
2024/03/21 07:38:41;;;;;;;;;;;;;;;;;;5029915;28;20024;-73
2024/03/21 07:41:07;;;;;;;;;;;;;;;;;;5031511;28;19913;-73
2024/03/21 07:43:33;;;;;;;;;;;;;;;;;;5002203;28;19936;-73
2024/03/21 07:45:58;;;;;;;;;;;;;;;;;;5013006;28;20317;-73
2024/03/21 07:48:24;;;;;;;;;;;;;;;;;;5031609;28;19921;-73
2024/03/21 07:50:49;;;;;;;;;;;;;;;;;;5013978;28;20476;-72
2024/03/21 07:53:15;;;;;;;;;;;;;;;;;;5013839;28;20000;-73
2024/03/21 07:55:40;;;;;;;;;;;;;;;;;;5013236;28;19914;-73
2024/03/21 07:58:05;;;;;;;;;;;;;;;;;;5012842;28;19917;-73
2024/03/21 08:00:30;;;;;;;;;;;;;;;;;;5012968;28;19953;-73
2024/03/21 08:02:55;;;;;;;;;;;;;;;;;;5012861;28;19932;-73
2024/03/21 08:05:20;;;;;;;;;;;;;;;;;;5011486;28;19916;-73
2024/03/21 08:07:46;;;;;;;;;;;;;;;;;;5018972;28;20431;-73
2024/03/21 08:10:11;;;;;;;;;;;;;;;;;;5014132;28;19917;-73
2024/03/21 08:12:36;;;;;;;;;;;;;;;;;;5014049;28;20288;-73
2024/03/21 08:15:01;;;;;;;;;;;;;;;;;;5020747;28;20270;-73
2024/03/21 08:17:26;;;;;;;;;;;;;;;;;;5016642;28;20292;-74
2024/03/21 08:19:54;;;;;;;;;;;;;;;;;;5019496;28;19909;-73
2024/03/21 08:22:19;;;;;;;;;;;;;;;;;;5027861;28;19914;-72
2024/03/21 08:24:44;;;;;;;;;;;;;;;;;;5018203;28;19963;-72
2024/03/21 08:27:09;;;;;;;;;;;;;;;;;;5025281;28;19914;-72
2024/03/21 08:29:34;;;;;;;;;;;;;;;;;;5015087;28;19916;-72
2024/03/21 08:31:59;;;;;;;;;;;;;;;;;;5012769;28;20376;-71
2024/03/21 08:34:25;;;;;;;;;;;;;;;;;;5013032;28;20420;-71
2024/03/21 08:36:50;;;;;;;;;;;;;;;;;;5030005;28;19954;-74
2024/03/21 08:39:15;;;;;;;;;;;;;;;;;;5030663;28;20357;-73
2024/03/21 08:41:40;;;;;;;;;;;;;;;;;;5030687;28;19967;-73
2024/03/21 08:44:06;;;;;;;;;;;;;;;;;;5024764;28;19961;-73
2024/03/21 08:46:31;;;;;;;;;;;;;;;;;;5012197;28;19909;-72
2024/03/21 08:48:56;;;;;;;;;;;;;;;;;;5027967;28;19944;-72
2024/03/21 08:51:21;;;;;;;;;;;;;;;;;;5042952;28;19940;-73
2024/03/21 08:53:47;;;;;;;;;;;;;;;;;;5031789;28;19909;-72
2024/03/21 08:56:12;;;;;;;;;;;;;;;;;;5032035;28;19952;-73
2024/03/21 08:58:37;;;;;;;;;;;;;;;;;;5031855;28;19924;-73
2024/03/21 09:01:02;;;;;;;;;;;;;;;;;;5038936;28;19909;-74
2024/03/21 09:03:30;;;;;;;;;;;;;;;;;;5046630;28;19971;-74
2024/03/21 09:05:55;;;;;;;;;;;;;;;;;;5046663;28;20395;-74
2024/03/21 09:08:21;;;;;;;;;;;;;;;;;;5050536;28;19999;-73
2024/03/21 09:10:46;;;;;;;;;;;;;;;;;;5050137;28;20369;-74
2024/03/21 09:13:11;;;;;;;;;;;;;;;;;;5050371;28;19908;-74
2024/03/21 09:15:36;;;;;;;;;;;;;;;;;;5050151;28;19959;-74
2024/03/21 09:18:01;;;;;;;;;;;;;;;;;;5050055;28;19909;-74
2024/03/21 09:20:26;;;;;;;;;;;;;;;;;;5043584;28;19909;-73
2024/03/21 09:22:51;;;;;;;;;;;;;;;;;;5043257;28;19920;-73
2024/03/21 09:25:16;;;;;;;;;;;;;;;;;;5031930;28;19916;-72
2024/03/21 09:27:42;;;;;;;;;;;;;;;;;;5031616;28;19913;-74
2024/03/21 09:30:07;;;;;;;;;;;;;;;;;;5031868;28;19909;-73
2024/03/21 09:32:32;;;;;;;;;;;;;;;;;;5036673;28;19974;-72
2024/03/21 09:34:57;;;;;;;;;;;;;;;;;;5046193;28;19913;-73
2024/03/21 09:37:23;;;;;;;;;;;;;;;;;;5033809;28;19909;-73
2024/03/21 09:39:48;;;;;;;;;;;;;;;;;;5048632;28;19967;-72
2024/03/21 09:42:13;;;;;;;;;;;;;;;;;;5040607;28;20374;-72
2024/03/21 09:44:39;;;;;;;;;;;;;;;;;;5049025;28;19975;-72
2024/03/21 09:47:05;;;;;;;;;;;;;;;;;;5050116;28;20363;-74
2024/03/21 09:49:31;;;;;;;;;;;;;;;;;;5036000;28;20391;-74
2024/03/21 09:51:56;;;;;;;;;;;;;;;;;;5026024;28;20001;-74
2024/03/21 09:54:21;;;;;;;;;;;;;;;;;;5030259;28;19932;-73
2024/03/21 09:56:47;;;;;;;;;;;;;;;;;;5029805;28;20347;-73
2024/03/21 09:59:15;;;;;;;;;;;;;;;;;;5030020;28;19909;-74
2024/03/21 10:01:40;;;;;;;;;;;;;;;;;;5033412;28;19917;-72
2024/03/21 10:04:07;;;;;;;;;;;;;;;;;;5024595;28;19963;-73
2024/03/21 10:06:32;;;;;;;;;;;;;;;;;;5015657;28;19909;-74
2024/03/21 10:08:57;;;;;;;;;;;;;;;;;;5027809;28;19909;-74
2024/03/21 10:11:22;;;;;;;;;;;;;;;;;;5015479;28;19909;-75
2024/03/21 10:13:48;;;;;;;;;;;;;;;;;;5017893;28;19916;-74
2024/03/21 10:16:13;;;;;;;;;;;;;;;;;;5019944;28;19910;-73
2024/03/21 10:18:38;;;;;;;;;;;;;;;;;;5014937;28;19920;-73
2024/03/21 10:21:03;;;;;;;;;;;;;;;;;;5015853;28;19968;-73
2024/03/21 10:23:28;;;;;;;;;;;;;;;;;;5014888;28;19917;-73
2024/03/21 10:25:53;;;;;;;;;;;;;;;;;;5026224;28;19975;-73
2024/03/21 10:28:19;;;;;;;;;;;;;;;;;;5026499;28;19913;-73
2024/03/21 10:30:44;;;;;;;;;;;;;;;;;;5024921;28;20010;-73
2024/03/21 10:33:09;;;;;;;;;;;;;;;;;;5024588;28;19945;-72
2024/03/21 10:35:34;;;;;;;;;;;;;;;;;;5014670;28;19960;-73
2024/03/21 10:38:00;;;;;;;;;;;;;;;;;;5014390;28;19910;-73
2024/03/21 10:40:25;;;;;;;;;;;;;;;;;;5014506;28;19990;-73
2024/03/21 10:42:50;;;;;;;;;;;;;;;;;;5019826;28;19913;-73
2024/03/21 10:45:16;;;;;;;;;;;;;;;;;;5032806;28;19920;-74
2024/03/21 10:47:41;;;;;;;;;;;;;;;;;;5028798;28;19915;-73
2024/03/21 10:50:08;;;;;;;;;;;;;;;;;;5028410;28;19925;-73
2024/03/21 10:52:33;;;;;;;;;;;;;;;;;;5032333;28;19945;-73
2024/03/21 10:54:58;;;;;;;;;;;;;;;;;;5020512;28;19960;-73
2024/03/21 10:57:23;;;;;;;;;;;;;;;;;;5012904;28;19914;-72
2024/03/21 10:59:49;;;;;;;;;;;;;;;;;;5014960;28;19916;-74
2024/03/21 11:02:14;;;;;;;;;;;;;;;;;;5021288;28;19917;-72
2024/03/21 11:04:39;;;;;;;;;;;;;;;;;;5032815;28;19999;-73
2024/03/21 11:07:04;;;;;;;;;;;;;;;;;;5029482;28;19998;-73
2024/03/21 11:09:33;;;;;;;;;;;;;;;;;;5019600;28;19917;-70
2024/03/21 11:11:58;;;;;;;;;;;;;;;;;;5031692;28;19910;-72
2024/03/21 11:14:23;;;;;;;;;;;;;;;;;;5025266;28;19914;-73
2024/03/21 11:16:48;;;;;;;;;;;;;;;;;;5021590;28;19956;-73
2024/03/21 11:19:13;;;;;;;;;;;;;;;;;;5013924;28;20016;-73
2024/03/21 11:21:40;;;;;;;;;;;;;;;;;;5013583;28;19921;-72
2024/03/21 11:24:05;;;;;;;;;;;;;;;;;;5013542;28;20356;-72
2024/03/21 11:26:31;;;;;;;;;;;;;;;;;;5019686;28;20381;-71
2024/03/21 11:28:56;;;;;;;;;;;;;;;;;;5031824;28;19913;-71
2024/03/21 11:31:21;;;;;;;;;;;;;;;;;;5031913;28;19948;-73
2024/03/21 11:33:46;;;;;;;;;;;;;;;;;;5028257;28;19913;-73
2024/03/21 11:36:11;;;;;;;;;;;;;;;;;;5013263;28;19921;-72
2024/03/21 11:38:36;;;;;;;;;;;;;;;;;;5018066;28;19909;-73
2024/03/21 11:41:01;;;;;;;;;;;;;;;;;;5023813;28;19916;-73
2024/03/21 11:43:27;;;;;;;;;;;;;;;;;;5031070;28;20059;-73
2024/03/21 11:45:52;;;;;;;;;;;;;;;;;;5030355;28;19919;-74
2024/03/21 11:48:24;;;;;;;;;;;;;;;;;;5028881;28;20014;-73
2024/03/21 11:50:49;;;;;;;;;;;;;;;;;;5041247;28;19909;-72
2024/03/21 11:53:15;;;;;;;;;;;;;;;;;;5032867;28;20563;-72
2024/03/21 11:55:40;;;;;;;;;;;;;;;;;;5032624;28;19914;-72
2024/03/21 11:58:05;;;;;;;;;;;;;;;;;;5032781;28;19916;-72
2024/03/21 12:00:30;;;;;;;;;;;;;;;;;;5043331;28;19999;-73
2024/03/21 12:02:55;;;;;;;;;;;;;;;;;;5051400;28;19923;-72
2024/03/21 12:05:21;;;;;;;;;;;;;;;;;;5051510;28;20354;-71
2024/03/21 12:07:46;;;;;;;;;;;;;;;;;;5047285;28;19913;-72
2024/03/21 12:10:11;;;;;;;;;;;;;;;;;;5047025;28;19916;-74
2024/03/21 12:12:36;;;;;;;;;;;;;;;;;;5049731;28;19916;-73
2024/03/21 12:15:01;;;;;;;;;;;;;;;;;;5047199;28;19916;-71
2024/03/21 12:17:26;;;;;;;;;;;;;;;;;;5049498;28;19913;-71
2024/03/21 12:19:51;;;;;;;;;;;;;;;;;;5043993;28;19909;-71
2024/03/21 12:22:17;;;;;;;;;;;;;;;;;;5032603;28;19921;-71
2024/03/21 12:24:42;;;;;;;;;;;;;;;;;;5034424;28;19996;-73
2024/03/21 12:27:08;;;;;;;;;;;;;;;;;;5036371;28;19909;-71
2024/03/21 12:29:33;;;;;;;;;;;;;;;;;;5032581;28;19913;-72
2024/03/21 12:31:58;;;;;;;;;;;;;;;;;;5038205;28;19993;-72
2024/03/21 12:34:24;;;;;;;;;;;;;;;;;;5033509;28;19913;-72
2024/03/21 12:36:49;;;;;;;;;;;;;;;;;;5051228;28;19914;-72
2024/03/21 12:39:17;;;;;;;;;;;;;;;;;;5047518;28;20330;-73
2024/03/21 12:41:42;;;;;;;;;;;;;;;;;;5048901;28;20364;-72
2024/03/21 12:44:09;;;;;;;;;;;;;;;;;;5045730;28;19996;-72
2024/03/21 12:46:34;;;;;;;;;;;;;;;;;;5050911;28;19924;-73
2024/03/21 12:48:59;;;;;;;;;;;;;;;;;;5040694;28;20140;-72
2024/03/21 12:51:25;;;;;;;;;;;;;;;;;;5030447;28;19916;-73
2024/03/21 12:53:50;;;;;;;;;;;;;;;;;;5030604;28;19909;-72
2024/03/21 12:56:16;;;;;;;;;;;;;;;;;;5029176;28;19975;-73
2024/03/21 12:58:41;;;;;;;;;;;;;;;;;;5029696;28;19909;-73
2024/03/21 13:01:06;;;;;;;;;;;;;;;;;;5030660;28;20297;-73
2024/03/21 13:03:32;;;;;;;;;;;;;;;;;;5030411;28;19913;-72
2024/03/21 13:05:57;;;;;;;;;;;;;;;;;;5030291;28;20052;-72
2024/03/21 13:08:22;;;;;;;;;;;;;;;;;;5026895;28;19913;-73
2024/03/21 13:10:48;;;;;;;;;;;;;;;;;;5010686;28;19924;-72
2024/03/21 13:13:13;;;;;;;;;;;;;;;;;;5019935;28;19913;-75
2024/03/21 13:15:38;;;;;;;;;;;;;;;;;;5026549;28;19916;-74
2024/03/21 13:18:03;;;;;;;;;;;;;;;;;;5012461;28;19914;-74
2024/03/21 13:20:32;;;;;;;;;;;;;;;;;;5014463;28;19913;-74
2024/03/21 13:22:57;;;;;;;;;;;;;;;;;;5011874;28;20000;-74
2024/03/21 13:25:22;;;;;;;;;;;;;;;;;;5011861;28;19993;-74
2024/03/21 13:27:47;;;;;;;;;;;;;;;;;;5011859;28;19916;-73
2024/03/21 13:30:12;;;;;;;;;;;;;;;;;;5014736;28;19916;-73
2024/03/21 13:32:41;;;;;;;;;;;;;;;;;;5023672;28;20569;-73
2024/03/21 13:35:06;;;;;;;;;;;;;;;;;;5013341;28;19913;-73
2024/03/21 13:37:31;;;;;;;;;;;;;;;;;;5034035;28;19913;-73
2024/03/21 13:39:56;;;;;;;;;;;;;;;;;;5025970;28;19972;-73
2024/03/21 13:42:23;;;;;;;;;;;;;;;;;;5015799;28;19967;-73
2024/03/21 13:44:48;;;;;;;;;;;;;;;;;;5032573;28;19909;-73
2024/03/21 13:47:13;;;;;;;;;;;;;;;;;;5033892;28;19916;-73
2024/03/21 13:49:38;;;;;;;;;;;;;;;;;;5030027;28;20393;-73
2024/03/21 13:52:04;;;;;;;;;;;;;;;;;;5033510;28;19910;-73
2024/03/21 13:54:29;;;;;;;;;;;;;;;;;;5025491;28;19916;-73
2024/03/21 13:56:54;;;;;;;;;;;;;;;;;;5026948;28;19909;-73
2024/03/21 13:59:19;;;;;;;;;;;;;;;;;;5033658;28;19949;-73
2024/03/21 14:01:44;;;;;;;;;;;;;;;;;;5033581;28;19980;-73
2024/03/21 14:04:11;;;;;;;;;;;;;;;;;;5019034;28;19996;-73
2024/03/21 14:06:36;;;;;;;;;;;;;;;;;;5022897;28;19917;-73
2024/03/21 14:09:02;;;;;;;;;;;;;;;;;;5024161;28;19968;-72
2024/03/21 14:11:28;;;;;;;;;;;;;;;;;;5023078;28;19909;-73
2024/03/21 14:13:53;;;;;;;;;;;;;;;;;;5030657;28;19917;-73
2024/03/21 14:16:18;;;;;;;;;;;;;;;;;;5015480;28;19917;-73
2024/03/21 14:18:43;;;;;;;;;;;;;;;;;;5014927;28;19909;-73
2024/03/21 14:21:08;;;;;;;;;;;;;;;;;;5023748;28;19967;-73
2024/03/21 14:23:33;;;;;;;;;;;;;;;;;;5018580;28;19966;-73
2024/03/21 14:25:58;;;;;;;;;;;;;;;;;;5016127;28;19910;-73
2024/03/21 14:28:24;;;;;;;;;;;;;;;;;;5016587;28;20376;-71
2024/03/21 14:30:49;;;;;;;;;;;;;;;;;;5034614;28;20035;-72
2024/03/21 14:33:14;;;;;;;;;;;;;;;;;;5030595;28;19995;-72
2024/03/21 14:35:39;;;;;;;;;;;;;;;;;;5014987;28;19914;-71
2024/03/21 14:38:04;;;;;;;;;;;;;;;;;;5014898;28;19931;-72
2024/03/21 14:40:29;;;;;;;;;;;;;;;;;;5017591;28;19909;-71
2024/03/21 14:42:54;;;;;;;;;;;;;;;;;;5029326;28;19952;-71
2024/03/21 14:45:20;;;;;;;;;;;;;;;;;;5014916;28;19996;-71
2024/03/21 14:47:45;;;;;;;;;;;;;;;;;;5013418;28;19913;-71
2024/03/21 14:50:11;;;;;;;;;;;;;;;;;;5033423;28;20611;-72
2024/03/21 14:52:37;;;;;;;;;;;;;;;;;;5016340;28;19967;-72
2024/03/21 14:55:02;;;;;;;;;;;;;;;;;;5042246;28;19913;-72
2024/03/21 14:57:27;;;;;;;;;;;;;;;;;;5043325;28;19912;-72
2024/03/21 14:59:52;;;;;;;;;;;;;;;;;;5034171;28;19916;-73
2024/03/21 15:02:18;;;;;;;;;;;;;;;;;;5034043;28;20550;-71
2024/03/21 15:04:43;;;;;;;;;;;;;;;;;;5034188;28;19909;-73
2024/03/21 15:07:09;;;;;;;;;;;;;;;;;;5035437;28;19915;-72
2024/03/21 15:09:34;;;;;;;;;;;;;;;;;;5052064;28;19909;-73
2024/03/21 15:11:59;;;;;;;;;;;;;;;;;;5051994;28;20373;-73
2024/03/21 15:14:24;;;;;;;;;;;;;;;;;;5043497;28;20076;-73
2024/03/21 15:16:49;;;;;;;;;;;;;;;;;;5050149;28;19916;-73
2024/03/21 15:19:14;;;;;;;;;;;;;;;;;;5034490;28;19996;-72
2024/03/21 15:21:40;;;;;;;;;;;;;;;;;;5034878;28;20388;-73
2024/03/21 15:24:05;;;;;;;;;;;;;;;;;;5036242;28;19916;-73
2024/03/21 15:26:30;;;;;;;;;;;;;;;;;;5033775;28;19948;-73
2024/03/21 15:28:55;;;;;;;;;;;;;;;;;;5033546;28;20392;-74
2024/03/21 15:31:24;;;;;;;;;;;;;;;;;;5035767;28;20639;-72
2024/03/21 15:33:49;;;;;;;;;;;;;;;;;;5051592;28;19916;-73
2024/03/21 15:36:22;;;;;;;;;;;;;;;;;;5051697;28;19912;-74
2024/03/21 15:38:47;;;;;;;;;;;;;;;;;;5039818;28;19913;-74
2024/03/21 15:41:12;;;;;;;;;;;;;;;;;;5032859;28;19920;-72
2024/03/21 15:43:38;;;;;;;;;;;;;;;;;;5042782;28;20028;-71
2024/03/21 15:46:03;;;;;;;;;;;;;;;;;;5039219;28;19908;-71
2024/03/21 15:48:28;;;;;;;;;;;;;;;;;;5030827;28;20419;-72
2024/03/21 15:50:53;;;;;;;;;;;;;;;;;;5023833;28;20399;-73
2024/03/21 15:53:18;;;;;;;;;;;;;;;;;;5031665;28;19916;-73
2024/03/21 15:55:43;;;;;;;;;;;;;;;;;;5025868;28;19924;-73
2024/03/21 15:58:08;;;;;;;;;;;;;;;;;;5015142;28;19919;-73
2024/03/21 16:00:33;;;;;;;;;;;;;;;;;;5012894;28;19979;-73
2024/03/21 16:03:00;;;;;;;;;;;;;;;;;;5029779;28;19920;-73
2024/03/21 16:05:25;;;;;;;;;;;;;;;;;;5022813;28;19913;-71
2024/03/21 16:07:50;;;;;;;;;;;;;;;;;;5012001;28;19918;-71
2024/03/21 16:10:17;;;;;;;;;;;;;;;;;;5016481;28;20019;-73
2024/03/21 16:12:42;;;;;;;;;;;;;;;;;;5025498;28;19909;-73
2024/03/21 16:15:08;;;;;;;;;;;;;;;;;;5016153;28;19920;-73
2024/03/21 16:17:33;;;;;;;;;;;;;;;;;;5016551;28;20507;-73
2024/03/21 16:19:58;;;;;;;;;;;;;;;;;;5014821;28;19917;-73
2024/03/21 16:22:23;;;;;;;;;;;;;;;;;;5014176;28;20297;-74
2024/03/21 16:24:48;;;;;;;;;;;;;;;;;;5015933;28;20560;-73
2024/03/21 16:27:13;;;;;;;;;;;;;;;;;;5015078;28;20000;-73
2024/03/21 16:29:38;;;;;;;;;;;;;;;;;;5016853;28;19909;-73
2024/03/21 16:32:04;;;;;;;;;;;;;;;;;;5014857;28;20468;-73
2024/03/21 16:34:29;;;;;;;;;;;;;;;;;;5016145;28;20366;-73
2024/03/21 16:36:54;;;;;;;;;;;;;;;;;;5015442;28;19917;-71